sensor_id;sensor_type;location;lat;lon;timestamp;pressure;altitude;pressure_sealevel;temperature
19948;BMP180;10135;50.702;7.276;2023-07-24T05:01:06;98373.00;;;22.80
19948;BMP180;10135;50.702;7.276;2023-07-24T05:03:07;98361.00;;;22.80
19948;BMP180;10135;50.702;7.276;2023-07-24T05:05:11;98361.00;;;22.80
19948;BMP180;10135;50.702;7.276;2023-07-24T05:07:12;98361.00;;;22.80
19948;BMP180;10135;50.702;7.276;2023-07-24T05:09:12;98361.00;;;22.90
19948;BMP180;10135;50.702;7.276;2023-07-24T05:11:13;98359.00;;;22.90
19948;BMP180;10135;50.702;7.276;2023-07-24T05:13:14;98359.00;;;22.90
19948;BMP180;10135;50.702;7.276;2023-07-24T05:15:14;98363.00;;;22.90
19948;BMP180;10135;50.702;7.276;2023-07-24T05:17:17;98372.00;;;22.90
19948;BMP180;10135;50.702;7.276;2023-07-24T05:19:18;98365.00;;;23.00
19948;BMP180;10135;50.702;7.276;2023-07-24T05:21:18;98366.00;;;23.00
19948;BMP180;10135;50.702;7.276;2023-07-24T05:23:19;98361.00;;;23.00
19948;BMP180;10135;50.702;7.276;2023-07-24T05:25:20;98368.00;;;23.00
19948;BMP180;10135;50.702;7.276;2023-07-24T05:27:20;98368.00;;;23.00
19948;BMP180;10135;50.702;7.276;2023-07-24T05:29:21;98371.00;;;23.00
19948;BMP180;10135;50.702;7.276;2023-07-24T05:31:22;98373.00;;;23.00
19948;BMP180;10135;50.702;7.276;2023-07-24T05:33:23;98371.00;;;23.10
19948;BMP180;10135;50.702;7.276;2023-07-24T05:35:23;98377.00;;;23.10
19948;BMP180;10135;50.702;7.276;2023-07-24T05:37:24;98384.00;;;23.10
19948;BMP180;10135;50.702;7.276;2023-07-24T05:39:24;98385.00;;;23.10
19948;BMP180;10135;50.702;7.276;2023-07-24T05:41:25;98402.00;;;23.10
19948;BMP180;10135;50.702;7.276;2023-07-24T05:43:27;98407.00;;;23.10
19948;BMP180;10135;50.702;7.276;2023-07-24T05:45:28;98397.00;;;23.20
19948;BMP180;10135;50.702;7.276;2023-07-24T05:47:28;98394.00;;;23.20
19948;BMP180;10135;50.702;7.276;2023-07-24T05:49:29;98396.00;;;23.20
19948;BMP180;10135;50.702;7.276;2023-07-24T05:51:29;98392.00;;;23.30
19948;BMP180;10135;50.702;7.276;2023-07-24T05:53:30;98389.00;;;23.30
19948;BMP180;10135;50.702;7.276;2023-07-24T05:55:31;98386.00;;;23.40
19948;BMP180;10135;50.702;7.276;2023-07-24T05:57:31;98388.00;;;23.50
19948;BMP180;10135;50.702;7.276;2023-07-24T05:59:32;98380.00;;;23.50
19948;BMP180;10135;50.702;7.276;2023-07-24T06:01:32;98392.00;;;23.50
19948;BMP180;10135;50.702;7.276;2023-07-24T06:03:33;98390.00;;;23.60
19948;BMP180;10135;50.702;7.276;2023-07-24T06:05:34;98392.00;;;23.60
19948;BMP180;10135;50.702;7.276;2023-07-24T06:07:34;98396.00;;;23.60
19948;BMP180;10135;50.702;7.276;2023-07-24T06:09:35;98384.00;;;23.60
19948;BMP180;10135;50.702;7.276;2023-07-24T06:11:36;98393.00;;;23.60
19948;BMP180;10135;50.702;7.276;2023-07-24T06:13:36;98402.00;;;23.60
19948;BMP180;10135;50.702;7.276;2023-07-24T06:15:37;98399.00;;;23.70
19948;BMP180;10135;50.702;7.276;2023-07-24T06:17:37;98395.00;;;23.70
19948;BMP180;10135;50.702;7.276;2023-07-24T06:19:39;98407.00;;;23.70
19948;BMP180;10135;50.702;7.276;2023-07-24T06:21:39;98401.00;;;23.70
19948;BMP180;10135;50.702;7.276;2023-07-24T06:23:41;98407.00;;;23.70
19948;BMP180;10135;50.702;7.276;2023-07-24T06:25:42;98408.00;;;23.70
19948;BMP180;10135;50.702;7.276;2023-07-24T06:27:43;98415.00;;;23.70
19948;BMP180;10135;50.702;7.276;2023-07-24T06:29:43;98407.00;;;23.70
19948;BMP180;10135;50.702;7.276;2023-07-24T06:31:44;98393.00;;;23.80
19948;BMP180;10135;50.702;7.276;2023-07-24T06:33:44;98388.00;;;23.80
19948;BMP180;10135;50.702;7.276;2023-07-24T06:35:45;98387.00;;;23.90
19948;BMP180;10135;50.702;7.276;2023-07-24T06:37:46;98393.00;;;23.90
19948;BMP180;10135;50.702;7.276;2023-07-24T06:39:46;98394.00;;;24.00
19948;BMP180;10135;50.702;7.276;2023-07-24T06:41:47;98396.00;;;24.00
19948;BMP180;10135;50.702;7.276;2023-07-24T06:43:48;98390.00;;;24.10
19948;BMP180;10135;50.702;7.276;2023-07-24T06:45:49;98392.00;;;24.10
19948;BMP180;10135;50.702;7.276;2023-07-24T06:47:49;98386.00;;;24.20
19948;BMP180;10135;50.702;7.276;2023-07-24T06:49:50;98396.00;;;24.30
19948;BMP180;10135;50.702;7.276;2023-07-24T06:51:50;98391.00;;;24.30
19948;BMP180;10135;50.702;7.276;2023-07-24T06:53:51;98393.00;;;24.40
19948;BMP180;10135;50.702;7.276;2023-07-24T06:55:52;98391.00;;;24.40
19948;BMP180;10135;50.702;7.276;2023-07-24T06:57:52;98389.00;;;24.40
19948;BMP180;10135;50.702;7.276;2023-07-24T06:59:53;98372.00;;;24.50
19948;BMP180;10135;50.702;7.276;2023-07-24T07:01:54;98383.00;;;24.50
19948;BMP180;10135;50.702;7.276;2023-07-24T07:03:54;98369.00;;;24.50
19948;BMP180;10135;50.702;7.276;2023-07-24T07:05:59;98376.00;;;24.50
19948;BMP180;10135;50.702;7.276;2023-07-24T07:07:59;98373.00;;;24.50
19948;BMP180;10135;50.702;7.276;2023-07-24T07:10:00;98377.00;;;24.50
19948;BMP180;10135;50.702;7.276;2023-07-24T07:12:01;98378.00;;;24.50
19948;BMP180;10135;50.702;7.276;2023-07-24T07:14:02;98371.00;;;24.50
19948;BMP180;10135;50.702;7.276;2023-07-24T07:16:02;98367.00;;;24.50
19948;BMP180;10135;50.702;7.276;2023-07-24T07:18:03;98375.00;;;24.60
19948;BMP180;10135;50.702;7.276;2023-07-24T07:20:05;98367.00;;;24.60
19948;BMP180;10135;50.702;7.276;2023-07-24T07:22:06;98361.00;;;24.60
19948;BMP180;10135;50.702;7.276;2023-07-24T07:24:07;98352.00;;;24.60
19948;BMP180;10135;50.702;7.276;2023-07-24T07:26:07;98361.00;;;24.60
19948;BMP180;10135;50.702;7.276;2023-07-24T07:28:08;98372.00;;;24.70
19948;BMP180;10135;50.702;7.276;2023-07-24T07:30:09;98377.00;;;24.70
19948;BMP180;10135;50.702;7.276;2023-07-24T07:32:10;98377.00;;;24.70
19948;BMP180;10135;50.702;7.276;2023-07-24T07:34:11;98379.00;;;24.70
19948;BMP180;10135;50.702;7.276;2023-07-24T07:36:12;98374.00;;;24.70
19948;BMP180;10135;50.702;7.276;2023-07-24T07:38:13;98369.00;;;24.70
19948;BMP180;10135;50.702;7.276;2023-07-24T07:40:13;98360.00;;;24.70
19948;BMP180;10135;50.702;7.276;2023-07-24T07:42:14;98356.00;;;24.70
19948;BMP180;10135;50.702;7.276;2023-07-24T07:44:14;98350.00;;;24.70
19948;BMP180;10135;50.702;7.276;2023-07-24T07:46:15;98342.00;;;24.70
19948;BMP180;10135;50.702;7.276;2023-07-24T07:48:16;98334.00;;;24.70
19948;BMP180;10135;50.702;7.276;2023-07-24T07:50:16;98334.00;;;24.70
19948;BMP180;10135;50.702;7.276;2023-07-24T07:52:17;98337.00;;;24.70
19948;BMP180;10135;50.702;7.276;2023-07-24T07:54:18;98334.00;;;24.70
19948;BMP180;10135;50.702;7.276;2023-07-24T07:56:19;98329.00;;;24.70
19948;BMP180;10135;50.702;7.276;2023-07-24T07:58:19;98334.00;;;24.70
19948;BMP180;10135;50.702;7.276;2023-07-24T08:00:20;98339.00;;;24.70
19948;BMP180;10135;50.702;7.276;2023-07-24T08:02:21;98343.00;;;24.70
19948;BMP180;10135;50.702;7.276;2023-07-24T08:04:21;98355.00;;;24.70
19948;BMP180;10135;50.702;7.276;2023-07-24T08:06:22;98362.00;;;24.70
19948;BMP180;10135;50.702;7.276;2023-07-24T08:08:23;98371.00;;;24.80
19948;BMP180;10135;50.702;7.276;2023-07-24T08:10:24;98363.00;;;24.80
19948;BMP180;10135;50.702;7.276;2023-07-24T08:12:25;98350.00;;;24.80
19948;BMP180;10135;50.702;7.276;2023-07-24T08:14:25;98338.00;;;24.80
19948;BMP180;10135;50.702;7.276;2023-07-24T08:16:26;98353.00;;;24.80
19948;BMP180;10135;50.702;7.276;2023-07-24T08:18:26;98344.00;;;24.90
19948;BMP180;10135;50.702;7.276;2023-07-24T08:20:27;98346.00;;;24.90
19948;BMP180;10135;50.702;7.276;2023-07-24T08:22:28;98344.00;;;24.90
19948;BMP180;10135;50.702;7.276;2023-07-24T08:24:28;98347.00;;;24.90
19948;BMP180;10135;50.702;7.276;2023-07-24T08:26:29;98349.00;;;25.00
19948;BMP180;10135;50.702;7.276;2023-07-24T08:28:32;98337.00;;;25.00
19948;BMP180;10135;50.702;7.276;2023-07-24T08:30:34;98337.00;;;25.00
19948;BMP180;10135;50.702;7.276;2023-07-24T08:32:34;98330.00;;;25.00
19948;BMP180;10135;50.702;7.276;2023-07-24T08:34:35;98329.00;;;25.00
19948;BMP180;10135;50.702;7.276;2023-07-24T08:36:36;98320.00;;;25.00
19948;BMP180;10135;50.702;7.276;2023-07-24T08:38:38;98332.00;;;25.10
19948;BMP180;10135;50.702;7.276;2023-07-24T08:40:38;98327.00;;;25.10
19948;BMP180;10135;50.702;7.276;2023-07-24T08:42:42;98330.00;;;25.20
19948;BMP180;10135;50.702;7.276;2023-07-24T08:44:44;98335.00;;;25.20
19948;BMP180;10135;50.702;7.276;2023-07-24T08:46:45;98337.00;;;25.20
19948;BMP180;10135;50.702;7.276;2023-07-24T08:48:47;98331.00;;;25.30
19948;BMP180;10135;50.702;7.276;2023-07-24T08:50:51;98336.00;;;25.30
19948;BMP180;10135;50.702;7.276;2023-07-24T08:52:52;98322.00;;;25.40
19948;BMP180;10135;50.702;7.276;2023-07-24T08:54:56;98323.00;;;25.40
19948;BMP180;10135;50.702;7.276;2023-07-24T08:56:58;98321.00;;;25.50
19948;BMP180;10135;50.702;7.276;2023-07-24T08:58:59;98321.00;;;25.50
19948;BMP180;10135;50.702;7.276;2023-07-24T09:01:02;98327.00;;;25.50
19948;BMP180;10135;50.702;7.276;2023-07-24T09:03:03;98328.00;;;25.60
19948;BMP180;10135;50.702;7.276;2023-07-24T09:05:05;98331.00;;;25.60
19948;BMP180;10135;50.702;7.276;2023-07-24T09:07:06;98324.00;;;25.60
19948;BMP180;10135;50.702;7.276;2023-07-24T09:09:17;98323.00;;;25.60
19948;BMP180;10135;50.702;7.276;2023-07-24T09:11:17;98316.00;;;25.60
19948;BMP180;10135;50.702;7.276;2023-07-24T09:13:18;98313.00;;;25.60
19948;BMP180;10135;50.702;7.276;2023-07-24T09:15:18;98317.00;;;25.70
19948;BMP180;10135;50.702;7.276;2023-07-24T09:17:19;98314.00;;;25.70
19948;BMP180;10135;50.702;7.276;2023-07-24T09:19:20;98310.00;;;25.70
19948;BMP180;10135;50.702;7.276;2023-07-24T09:21:29;98302.00;;;25.70
19948;BMP180;10135;50.702;7.276;2023-07-24T09:23:30;98299.00;;;25.70
19948;BMP180;10135;50.702;7.276;2023-07-24T09:25:36;98299.00;;;25.70
19948;BMP180;10135;50.702;7.276;2023-07-24T09:27:37;98296.00;;;25.70
19948;BMP180;10135;50.702;7.276;2023-07-24T09:29:38;98285.00;;;25.70
19948;BMP180;10135;50.702;7.276;2023-07-24T09:31:39;98282.00;;;25.70
19948;BMP180;10135;50.702;7.276;2023-07-24T09:33:41;98278.00;;;25.70
19948;BMP180;10135;50.702;7.276;2023-07-24T09:35:41;98274.00;;;25.70
19948;BMP180;10135;50.702;7.276;2023-07-24T09:37:42;98271.00;;;25.70
19948;BMP180;10135;50.702;7.276;2023-07-24T09:39:46;98262.00;;;25.70
19948;BMP180;10135;50.702;7.276;2023-07-24T09:41:47;98257.00;;;25.70
19948;BMP180;10135;50.702;7.276;2023-07-24T09:43:58;98252.00;;;25.80
19948;BMP180;10135;50.702;7.276;2023-07-24T09:45:59;98252.00;;;25.80
19948;BMP180;10135;50.702;7.276;2023-07-24T09:48:00;98251.00;;;25.90
19948;BMP180;10135;50.702;7.276;2023-07-24T09:50:03;98250.00;;;26.00
19948;BMP180;10135;50.702;7.276;2023-07-24T09:52:09;98242.00;;;26.00
19948;BMP180;10135;50.702;7.276;2023-07-24T09:56:19;98237.00;;;26.10
19948;BMP180;10135;50.702;7.276;2023-07-24T09:58:21;98242.00;;;26.10
19948;BMP180;10135;50.702;7.276;2023-07-24T10:00:23;98245.00;;;26.10
19948;BMP180;10135;50.702;7.276;2023-07-24T10:02:24;98245.00;;;26.20
19948;BMP180;10135;50.702;7.276;2023-07-24T10:04:26;98235.00;;;26.20
19948;BMP180;10135;50.702;7.276;2023-07-24T10:06:28;98242.00;;;26.20
19948;BMP180;10135;50.702;7.276;2023-07-24T10:08:31;98241.00;;;26.30
19948;BMP180;10135;50.702;7.276;2023-07-24T10:10:32;98236.00;;;26.30
19948;BMP180;10135;50.702;7.276;2023-07-24T10:12:33;98231.00;;;26.30
19948;BMP180;10135;50.702;7.276;2023-07-24T10:14:36;98235.00;;;26.30
19948;BMP180;10135;50.702;7.276;2023-07-24T10:16:37;98238.00;;;26.30
19948;BMP180;10135;50.702;7.276;2023-07-24T10:18:45;98236.00;;;26.30
19948;BMP180;10135;50.702;7.276;2023-07-24T10:20:46;98231.00;;;26.30
19948;BMP180;10135;50.702;7.276;2023-07-24T10:22:47;98237.00;;;26.30
19948;BMP180;10135;50.702;7.276;2023-07-24T10:24:48;98238.00;;;26.30
19948;BMP180;10135;50.702;7.276;2023-07-24T10:26:48;98234.00;;;26.30
19948;BMP180;10135;50.702;7.276;2023-07-24T10:28:50;98221.00;;;26.30
19948;BMP180;10135;50.702;7.276;2023-07-24T10:30:55;98223.00;;;26.30
19948;BMP180;10135;50.702;7.276;2023-07-24T10:33:12;98217.00;;;26.30
19948;BMP180;10135;50.702;7.276;2023-07-24T10:35:13;98219.00;;;26.30
19948;BMP180;10135;50.702;7.276;2023-07-24T10:37:15;98214.00;;;26.30
19948;BMP180;10135;50.702;7.276;2023-07-24T10:39:17;98217.00;;;26.40
19948;BMP180;10135;50.702;7.276;2023-07-24T10:41:21;98227.00;;;26.50
19948;BMP180;10135;50.702;7.276;2023-07-24T10:43:22;98226.00;;;26.50
19948;BMP180;10135;50.702;7.276;2023-07-24T10:45:23;98222.00;;;26.60
19948;BMP180;10135;50.702;7.276;2023-07-24T10:47:23;98222.00;;;26.60
19948;BMP180;10135;50.702;7.276;2023-07-24T10:49:24;98222.00;;;26.60
19948;BMP180;10135;50.702;7.276;2023-07-24T10:51:25;98223.00;;;26.70
19948;BMP180;10135;50.702;7.276;2023-07-24T10:53:25;98218.00;;;26.70
19948;BMP180;10135;50.702;7.276;2023-07-24T10:55:27;98222.00;;;26.70
19948;BMP180;10135;50.702;7.276;2023-07-24T10:57:29;98222.00;;;26.70
19948;BMP180;10135;50.702;7.276;2023-07-24T10:59:39;98225.00;;;26.70
19948;BMP180;10135;50.702;7.276;2023-07-24T11:01:41;98217.00;;;26.80
19948;BMP180;10135;50.702;7.276;2023-07-24T11:03:42;98216.00;;;26.80
19948;BMP180;10135;50.702;7.276;2023-07-24T11:05:45;98208.00;;;26.90
19948;BMP180;10135;50.702;7.276;2023-07-24T11:07:46;98206.00;;;26.90
19948;BMP180;10135;50.702;7.276;2023-07-24T11:09:47;98197.00;;;27.00
19948;BMP180;10135;50.702;7.276;2023-07-24T11:11:51;98188.00;;;27.00
19948;BMP180;10135;50.702;7.276;2023-07-24T11:13:52;98186.00;;;27.10
19948;BMP180;10135;50.702;7.276;2023-07-24T11:15:54;98180.00;;;27.10
19948;BMP180;10135;50.702;7.276;2023-07-24T11:17:55;98175.00;;;27.20
19948;BMP180;10135;50.702;7.276;2023-07-24T11:20:15;98174.00;;;27.20
19948;BMP180;10135;50.702;7.276;2023-07-24T11:22:21;98166.00;;;27.20
19948;BMP180;10135;50.702;7.276;2023-07-24T11:24:23;98163.00;;;27.30
19948;BMP180;10135;50.702;7.276;2023-07-24T11:26:26;98160.00;;;27.30
19948;BMP180;10135;50.702;7.276;2023-07-24T11:28:26;98163.00;;;27.40
19948;BMP180;10135;50.702;7.276;2023-07-24T11:30:27;98156.00;;;27.40
19948;BMP180;10135;50.702;7.276;2023-07-24T11:32:28;98153.00;;;27.50
19948;BMP180;10135;50.702;7.276;2023-07-24T11:34:28;98156.00;;;27.50
19948;BMP180;10135;50.702;7.276;2023-07-24T11:36:29;98146.00;;;27.50
19948;BMP180;10135;50.702;7.276;2023-07-24T11:38:30;98141.00;;;27.60
19948;BMP180;10135;50.702;7.276;2023-07-24T11:40:35;98141.00;;;27.60
19948;BMP180;10135;50.702;7.276;2023-07-24T11:42:41;98127.00;;;27.70
19948;BMP180;10135;50.702;7.276;2023-07-24T11:44:43;98132.00;;;27.70
19948;BMP180;10135;50.702;7.276;2023-07-24T11:46:43;98135.00;;;27.80
19948;BMP180;10135;50.702;7.276;2023-07-24T11:48:44;98137.00;;;27.90
19948;BMP180;10135;50.702;7.276;2023-07-24T11:50:53;98133.00;;;27.90
19948;BMP180;10135;50.702;7.276;2023-07-24T11:52:57;98119.00;;;28.00
19948;BMP180;10135;50.702;7.276;2023-07-24T11:54:58;98136.00;;;28.00
19948;BMP180;10135;50.702;7.276;2023-07-24T11:57:16;98124.00;;;28.00
19948;BMP180;10135;50.702;7.276;2023-07-24T11:59:17;98127.00;;;28.10
19948;BMP180;10135;50.702;7.276;2023-07-24T12:01:18;98129.00;;;28.10
19948;BMP180;10135;50.702;7.276;2023-07-24T12:03:25;98123.00;;;28.00
19948;BMP180;10135;50.702;7.276;2023-07-24T12:05:26;98127.00;;;28.10
19948;BMP180;10135;50.702;7.276;2023-07-24T12:07:34;98125.00;;;28.00
19948;BMP180;10135;50.702;7.276;2023-07-24T12:09:35;98125.00;;;28.10
19948;BMP180;10135;50.702;7.276;2023-07-24T12:11:43;98128.00;;;28.10
19948;BMP180;10135;50.702;7.276;2023-07-24T12:13:44;98124.00;;;28.10
19948;BMP180;10135;50.702;7.276;2023-07-24T12:15:45;98130.00;;;28.20
19948;BMP180;10135;50.702;7.276;2023-07-24T12:17:46;98133.00;;;28.20
19948;BMP180;10135;50.702;7.276;2023-07-24T12:19:46;98142.00;;;28.20
19948;BMP180;10135;50.702;7.276;2023-07-24T12:21:47;98141.00;;;28.20
19948;BMP180;10135;50.702;7.276;2023-07-24T12:23:48;98148.00;;;28.30
19948;BMP180;10135;50.702;7.276;2023-07-24T12:25:48;98152.00;;;28.30
19948;BMP180;10135;50.702;7.276;2023-07-24T12:27:49;98146.00;;;28.30
19948;BMP180;10135;50.702;7.276;2023-07-24T12:29:51;98153.00;;;28.40
19948;BMP180;10135;50.702;7.276;2023-07-24T12:31:52;98157.00;;;28.40
19948;BMP180;10135;50.702;7.276;2023-07-24T12:33:53;98144.00;;;28.50
19948;BMP180;10135;50.702;7.276;2023-07-24T12:35:53;98144.00;;;28.60
19948;BMP180;10135;50.702;7.276;2023-07-24T12:37:54;98147.00;;;28.70
19948;BMP180;10135;50.702;7.276;2023-07-24T12:39:55;98142.00;;;28.70
19948;BMP180;10135;50.702;7.276;2023-07-24T12:41:55;98133.00;;;28.80
19948;BMP180;10135;50.702;7.276;2023-07-24T12:43:56;98130.00;;;28.80
19948;BMP180;10135;50.702;7.276;2023-07-24T12:45:57;98126.00;;;28.90
19948;BMP180;10135;50.702;7.276;2023-07-24T12:47:57;98143.00;;;28.90
19948;BMP180;10135;50.702;7.276;2023-07-24T12:50:00;98149.00;;;28.90
19948;BMP180;10135;50.702;7.276;2023-07-24T12:52:02;98154.00;;;28.80
19948;BMP180;10135;50.702;7.276;2023-07-24T12:54:02;98147.00;;;28.80
19948;BMP180;10135;50.702;7.276;2023-07-24T12:56:03;98141.00;;;28.70
19948;BMP180;10135;50.702;7.276;2023-07-24T12:58:04;98145.00;;;28.60
19948;BMP180;10135;50.702;7.276;2023-07-24T13:00:05;98137.00;;;28.50
19948;BMP180;10135;50.702;7.276;2023-07-24T13:02:06;98146.00;;;28.50
19948;BMP180;10135;50.702;7.276;2023-07-24T13:04:08;98137.00;;;28.50
19948;BMP180;10135;50.702;7.276;2023-07-24T13:06:08;98128.00;;;28.50
19948;BMP180;10135;50.702;7.276;2023-07-24T13:08:09;98135.00;;;28.50
19948;BMP180;10135;50.702;7.276;2023-07-24T13:10:10;98132.00;;;28.40
19948;BMP180;10135;50.702;7.276;2023-07-24T13:12:10;98120.00;;;28.40
19948;BMP180;10135;50.702;7.276;2023-07-24T13:14:11;98117.00;;;28.40
19948;BMP180;10135;50.702;7.276;2023-07-24T13:16:12;98115.00;;;28.30
19948;BMP180;10135;50.702;7.276;2023-07-24T13:18:12;98125.00;;;28.20
19948;BMP180;10135;50.702;7.276;2023-07-24T13:20:14;98128.00;;;28.10
19948;BMP180;10135;50.702;7.276;2023-07-24T13:22:15;98131.00;;;28.10
19948;BMP180;10135;50.702;7.276;2023-07-24T13:24:15;98139.00;;;28.00
19948;BMP180;10135;50.702;7.276;2023-07-24T13:26:16;98139.00;;;27.90
19948;BMP180;10135;50.702;7.276;2023-07-24T13:28:17;98125.00;;;27.80
19948;BMP180;10135;50.702;7.276;2023-07-24T13:30:17;98128.00;;;27.60
19948;BMP180;10135;50.702;7.276;2023-07-24T13:32:18;98124.00;;;27.40
19948;BMP180;10135;50.702;7.276;2023-07-24T13:34:19;98131.00;;;27.30
19948;BMP180;10135;50.702;7.276;2023-07-24T13:36:20;98154.00;;;27.20
19948;BMP180;10135;50.702;7.276;2023-07-24T13:38:20;98147.00;;;27.00
19948;BMP180;10135;50.702;7.276;2023-07-24T13:40:21;98134.00;;;26.90
19948;BMP180;10135;50.702;7.276;2023-07-24T13:42:22;98137.00;;;26.90
19948;BMP180;10135;50.702;7.276;2023-07-24T13:44:22;98132.00;;;26.80
19948;BMP180;10135;50.702;7.276;2023-07-24T13:46:23;98139.00;;;26.70
19948;BMP180;10135;50.702;7.276;2023-07-24T13:48:24;98135.00;;;26.60
19948;BMP180;10135;50.702;7.276;2023-07-24T13:50:25;98106.00;;;26.50
19948;BMP180;10135;50.702;7.276;2023-07-24T13:52:25;98125.00;;;26.40
19948;BMP180;10135;50.702;7.276;2023-07-24T13:54:26;98115.00;;;26.30
19948;BMP180;10135;50.702;7.276;2023-07-24T13:56:27;98101.00;;;26.30
19948;BMP180;10135;50.702;7.276;2023-07-24T13:58:29;98097.00;;;26.30
19948;BMP180;10135;50.702;7.276;2023-07-24T14:00:30;98119.00;;;26.20
19948;BMP180;10135;50.702;7.276;2023-07-24T14:02:31;98139.00;;;26.20
19948;BMP180;10135;50.702;7.276;2023-07-24T14:04:31;98141.00;;;26.20
19948;BMP180;10135;50.702;7.276;2023-07-24T14:06:32;98145.00;;;26.10
19948;BMP180;10135;50.702;7.276;2023-07-24T14:08:33;98137.00;;;26.10
19948;BMP180;10135;50.702;7.276;2023-07-24T14:10:34;98130.00;;;26.10
19948;BMP180;10135;50.702;7.276;2023-07-24T14:12:35;98122.00;;;26.00
19948;BMP180;10135;50.702;7.276;2023-07-24T14:14:36;98137.00;;;26.00
19948;BMP180;10135;50.702;7.276;2023-07-24T14:16:37;98124.00;;;26.00
19948;BMP180;10135;50.702;7.276;2023-07-24T14:18:37;98122.00;;;25.90
19948;BMP180;10135;50.702;7.276;2023-07-24T14:20:38;98132.00;;;25.90
19948;BMP180;10135;50.702;7.276;2023-07-24T14:22:40;98125.00;;;25.90
19948;BMP180;10135;50.702;7.276;2023-07-24T14:24:41;98133.00;;;25.90
19948;BMP180;10135;50.702;7.276;2023-07-24T14:26:42;98150.00;;;26.00
19948;BMP180;10135;50.702;7.276;2023-07-24T14:28:42;98132.00;;;26.00
19948;BMP180;10135;50.702;7.276;2023-07-24T14:30:43;98142.00;;;26.00
19948;BMP180;10135;50.702;7.276;2023-07-24T14:32:43;98143.00;;;26.10
19948;BMP180;10135;50.702;7.276;2023-07-24T14:34:50;98157.00;;;26.10
19948;BMP180;10135;50.702;7.276;2023-07-24T14:36:51;98179.00;;;26.10
19948;BMP180;10135;50.702;7.276;2023-07-24T14:38:53;98184.00;;;26.10
19948;BMP180;10135;50.702;7.276;2023-07-24T14:40:53;98204.00;;;26.00
19948;BMP180;10135;50.702;7.276;2023-07-24T14:42:54;98201.00;;;26.00
19948;BMP180;10135;50.702;7.276;2023-07-24T14:44:54;98205.00;;;26.00
19948;BMP180;10135;50.702;7.276;2023-07-24T14:46:55;98204.00;;;25.90
19948;BMP180;10135;50.702;7.276;2023-07-24T14:48:56;98198.00;;;25.90
19948;BMP180;10135;50.702;7.276;2023-07-24T14:50:56;98190.00;;;25.80
19948;BMP180;10135;50.702;7.276;2023-07-24T14:52:57;98194.00;;;25.80
19948;BMP180;10135;50.702;7.276;2023-07-24T14:54:58;98198.00;;;25.80
19948;BMP180;10135;50.702;7.276;2023-07-24T14:56:58;98199.00;;;25.70
19948;BMP180;10135;50.702;7.276;2023-07-24T14:58:59;98191.00;;;25.70
19948;BMP180;10135;50.702;7.276;2023-07-24T15:01:01;98190.00;;;25.70
19948;BMP180;10135;50.702;7.276;2023-07-24T15:03:01;98184.00;;;25.70
19948;BMP180;10135;50.702;7.276;2023-07-24T15:05:02;98184.00;;;25.70
19948;BMP180;10135;50.702;7.276;2023-07-24T15:07:03;98185.00;;;25.70
19948;BMP180;10135;50.702;7.276;2023-07-24T15:09:04;98186.00;;;25.80
19948;BMP180;10135;50.702;7.276;2023-07-24T15:11:04;98176.00;;;25.80
19948;BMP180;10135;50.702;7.276;2023-07-24T15:13:05;98182.00;;;25.70
19948;BMP180;10135;50.702;7.276;2023-07-24T15:15:06;98181.00;;;25.70
19948;BMP180;10135;50.702;7.276;2023-07-24T15:17:07;98177.00;;;25.70
19948;BMP180;10135;50.702;7.276;2023-07-24T15:19:08;98181.00;;;25.70
19948;BMP180;10135;50.702;7.276;2023-07-24T15:21:10;98185.00;;;25.70
19948;BMP180;10135;50.702;7.276;2023-07-24T15:23:10;98183.00;;;25.80
19948;BMP180;10135;50.702;7.276;2023-07-24T15:25:13;98182.00;;;25.80
19948;BMP180;10135;50.702;7.276;2023-07-24T15:27:13;98183.00;;;25.80
19948;BMP180;10135;50.702;7.276;2023-07-24T15:29:14;98182.00;;;25.90
19948;BMP180;10135;50.702;7.276;2023-07-24T15:31:15;98181.00;;;25.90
19948;BMP180;10135;50.702;7.276;2023-07-24T15:33:17;98178.00;;;26.00
19948;BMP180;10135;50.702;7.276;2023-07-24T15:35:18;98182.00;;;26.00
19948;BMP180;10135;50.702;7.276;2023-07-24T15:37:18;98185.00;;;26.00
19948;BMP180;10135;50.702;7.276;2023-07-24T15:39:19;98189.00;;;26.00
19948;BMP180;10135;50.702;7.276;2023-07-24T15:41:20;98200.00;;;26.00
19948;BMP180;10135;50.702;7.276;2023-07-24T15:43:20;98197.00;;;26.00
19948;BMP180;10135;50.702;7.276;2023-07-24T15:45:24;98200.00;;;26.00
19948;BMP180;10135;50.702;7.276;2023-07-24T15:47:25;98192.00;;;26.00
19948;BMP180;10135;50.702;7.276;2023-07-24T15:49:26;98200.00;;;26.00
19948;BMP180;10135;50.702;7.276;2023-07-24T15:51:27;98198.00;;;26.00
19948;BMP180;10135;50.702;7.276;2023-07-24T15:53:28;98204.00;;;26.00
19948;BMP180;10135;50.702;7.276;2023-07-24T15:55:29;98202.00;;;26.00
19948;BMP180;10135;50.702;7.276;2023-07-24T15:57:29;98214.00;;;26.00
19948;BMP180;10135;50.702;7.276;2023-07-24T15:59:30;98201.00;;;26.00
19948;BMP180;10135;50.702;7.276;2023-07-24T16:01:31;98196.00;;;26.00
19948;BMP180;10135;50.702;7.276;2023-07-24T16:03:32;98208.00;;;25.90
19948;BMP180;10135;50.702;7.276;2023-07-24T16:05:32;98212.00;;;25.90
19948;BMP180;10135;50.702;7.276;2023-07-24T16:07:33;98218.00;;;25.90
19948;BMP180;10135;50.702;7.276;2023-07-24T16:09:33;98227.00;;;25.90
19948;BMP180;10135;50.702;7.276;2023-07-24T16:11:34;98217.00;;;25.90
19948;BMP180;10135;50.702;7.276;2023-07-24T16:13:43;98225.00;;;25.80
19948;BMP180;10135;50.702;7.276;2023-07-24T16:15:44;98227.00;;;25.90
19948;BMP180;10135;50.702;7.276;2023-07-24T16:17:45;98234.00;;;25.90
19948;BMP180;10135;50.702;7.276;2023-07-24T16:19:46;98238.00;;;25.80
19948;BMP180;10135;50.702;7.276;2023-07-24T16:21:50;98239.00;;;25.80
19948;BMP180;10135;50.702;7.276;2023-07-24T16:23:51;98228.00;;;25.80
19948;BMP180;10135;50.702;7.276;2023-07-24T16:25:51;98229.00;;;25.80
19948;BMP180;10135;50.702;7.276;2023-07-24T16:27:52;98235.00;;;25.80
19948;BMP180;10135;50.702;7.276;2023-07-24T16:29:52;98239.00;;;25.80
19948;BMP180;10135;50.702;7.276;2023-07-24T16:31:53;98244.00;;;25.80
19948;BMP180;10135;50.702;7.276;2023-07-24T16:33:54;98230.00;;;25.80
19948;BMP180;10135;50.702;7.276;2023-07-24T16:35:55;98227.00;;;25.80
19948;BMP180;10135;50.702;7.276;2023-07-24T16:37:55;98238.00;;;25.80
19948;BMP180;10135;50.702;7.276;2023-07-24T16:39:56;98231.00;;;25.90
19948;BMP180;10135;50.702;7.276;2023-07-24T16:41:57;98239.00;;;25.90